sensor_id;sensor_type;location;lat;lon;timestamp;temperature;humidity
47861;HTU21D;33620;52.340;5.984;2022-08-21T00:01:23;17.06;74.29
47861;HTU21D;33620;52.340;5.984;2022-08-21T00:03:50;16.99;74.60
47861;HTU21D;33620;52.340;5.984;2022-08-21T00:06:16;16.93;74.64
47861;HTU21D;33620;52.340;5.984;2022-08-21T00:08:41;16.90;74.83
47861;HTU21D;33620;52.340;5.984;2022-08-21T00:11:07;16.87;74.99
47861;HTU21D;33620;52.340;5.984;2022-08-21T00:13:32;16.89;74.82
47861;HTU21D;33620;52.340;5.984;2022-08-21T00:15:58;16.84;74.93
47861;HTU21D;33620;52.340;5.984;2022-08-21T00:18:25;16.84;75.26
47861;HTU21D;33620;52.340;5.984;2022-08-21T00:20:51;16.82;74.96
47861;HTU21D;33620;52.340;5.984;2022-08-21T00:23:17;16.80;75.03
47861;HTU21D;33620;52.340;5.984;2022-08-21T00:25:43;16.77;75.20
47861;HTU21D;33620;52.340;5.984;2022-08-21T00:28:10;16.79;75.02
47861;HTU21D;33620;52.340;5.984;2022-08-21T00:30:35;16.75;75.08
47861;HTU21D;33620;52.340;5.984;2022-08-21T00:33:02;16.71;75.04
47861;HTU21D;33620;52.340;5.984;2022-08-21T00:35:35;16.69;75.12
47861;HTU21D;33620;52.340;5.984;2022-08-21T00:38:03;16.66;75.25
47861;HTU21D;33620;52.340;5.984;2022-08-21T00:40:33;16.64;75.15
47861;HTU21D;33620;52.340;5.984;2022-08-21T00:42:59;16.61;75.29
47861;HTU21D;33620;52.340;5.984;2022-08-21T00:45:25;16.56;75.24
47861;HTU21D;33620;52.340;5.984;2022-08-21T00:47:51;16.52;75.19
47861;HTU21D;33620;52.340;5.984;2022-08-21T00:50:17;16.50;75.39
47861;HTU21D;33620;52.340;5.984;2022-08-21T00:52:43;16.52;75.17
47861;HTU21D;33620;52.340;5.984;2022-08-21T00:55:11;16.48;75.23
47861;HTU21D;33620;52.340;5.984;2022-08-21T00:57:42;16.44;75.42
47861;HTU21D;33620;52.340;5.984;2022-08-21T01:00:12;16.46;75.34
47861;HTU21D;33620;52.340;5.984;2022-08-21T01:02:38;16.43;75.23
47861;HTU21D;33620;52.340;5.984;2022-08-21T01:05:04;16.41;75.47
47861;HTU21D;33620;52.340;5.984;2022-08-21T01:07:30;16.40;75.41
47861;HTU21D;33620;52.340;5.984;2022-08-21T01:09:55;16.44;75.38
47861;HTU21D;33620;52.340;5.984;2022-08-21T01:12:21;16.46;75.14
47861;HTU21D;33620;52.340;5.984;2022-08-21T01:14:47;16.46;74.84
47861;HTU21D;33620;52.340;5.984;2022-08-21T01:17:14;16.49;74.74
47861;HTU21D;33620;52.340;5.984;2022-08-21T01:19:40;16.41;74.88
47861;HTU21D;33620;52.340;5.984;2022-08-21T01:22:06;16.40;75.20
47861;HTU21D;33620;52.340;5.984;2022-08-21T01:24:32;16.39;75.37
47861;HTU21D;33620;52.340;5.984;2022-08-21T01:26:58;16.44;75.18
47861;HTU21D;33620;52.340;5.984;2022-08-21T01:29:53;16.49;74.83
47861;HTU21D;33620;52.340;5.984;2022-08-21T01:32:20;16.48;74.59
47861;HTU21D;33620;52.340;5.984;2022-08-21T01:34:47;16.44;74.64
47861;HTU21D;33620;52.340;5.984;2022-08-21T01:37:13;16.37;74.61
47861;HTU21D;33620;52.340;5.984;2022-08-21T01:39:39;16.31;74.79
47861;HTU21D;33620;52.340;5.984;2022-08-21T01:42:05;16.25;75.02
47861;HTU21D;33620;52.340;5.984;2022-08-21T01:44:31;16.17;75.14
47861;HTU21D;33620;52.340;5.984;2022-08-21T01:46:59;16.15;75.28
47861;HTU21D;33620;52.340;5.984;2022-08-21T01:49:24;16.13;75.44
47861;HTU21D;33620;52.340;5.984;2022-08-21T01:51:50;16.14;75.54
47861;HTU21D;33620;52.340;5.984;2022-08-21T01:54:15;16.18;75.57
47861;HTU21D;33620;52.340;5.984;2022-08-21T01:56:43;16.21;75.44
47861;HTU21D;33620;52.340;5.984;2022-08-21T01:59:10;16.26;75.31
47861;HTU21D;33620;52.340;5.984;2022-08-21T02:01:36;16.29;75.06
47861;HTU21D;33620;52.340;5.984;2022-08-21T02:04:01;16.28;75.03
47861;HTU21D;33620;52.340;5.984;2022-08-21T02:06:27;16.28;74.94
47861;HTU21D;33620;52.340;5.984;2022-08-21T02:08:52;16.26;74.89
47861;HTU21D;33620;52.340;5.984;2022-08-21T02:11:19;16.26;74.65
47861;HTU21D;33620;52.340;5.984;2022-08-21T02:13:44;16.20;74.52
47861;HTU21D;33620;52.340;5.984;2022-08-21T02:16:10;16.11;74.79
47861;HTU21D;33620;52.340;5.984;2022-08-21T02:18:36;16.03;74.69
47861;HTU21D;33620;52.340;5.984;2022-08-21T02:21:02;16.00;74.92
47861;HTU21D;33620;52.340;5.984;2022-08-21T02:23:27;15.91;75.14
47861;HTU21D;33620;52.340;5.984;2022-08-21T02:26:04;15.86;75.40
47861;HTU21D;33620;52.340;5.984;2022-08-21T02:28:31;15.81;75.55
47861;HTU21D;33620;52.340;5.984;2022-08-21T02:30:56;15.80;75.54
47861;HTU21D;33620;52.340;5.984;2022-08-21T02:33:23;15.78;75.60
47861;HTU21D;33620;52.340;5.984;2022-08-21T02:35:48;15.74;75.73
47861;HTU21D;33620;52.340;5.984;2022-08-21T02:38:17;15.73;75.93
47861;HTU21D;33620;52.340;5.984;2022-08-21T02:40:46;15.70;76.00
47861;HTU21D;33620;52.340;5.984;2022-08-21T02:43:12;15.69;75.97
47861;HTU21D;33620;52.340;5.984;2022-08-21T02:45:38;15.68;76.05
47861;HTU21D;33620;52.340;5.984;2022-08-21T02:48:07;15.70;76.21
47861;HTU21D;33620;52.340;5.984;2022-08-21T02:50:38;15.74;76.09
47861;HTU21D;33620;52.340;5.984;2022-08-21T02:53:06;15.76;76.03
47861;HTU21D;33620;52.340;5.984;2022-08-21T02:55:33;15.78;75.56
47861;HTU21D;33620;52.340;5.984;2022-08-21T02:58:04;15.78;75.51
47861;HTU21D;33620;52.340;5.984;2022-08-21T03:00:31;15.84;75.37
47861;HTU21D;33620;52.340;5.984;2022-08-21T03:02:58;15.85;74.68
47861;HTU21D;33620;52.340;5.984;2022-08-21T03:05:25;15.81;74.92
47861;HTU21D;33620;52.340;5.984;2022-08-21T03:07:51;15.76;75.24
47861;HTU21D;33620;52.340;5.984;2022-08-21T03:10:17;15.78;75.18
47861;HTU21D;33620;52.340;5.984;2022-08-21T03:12:44;15.80;75.15
47861;HTU21D;33620;52.340;5.984;2022-08-21T03:15:12;15.83;74.95
47861;HTU21D;33620;52.340;5.984;2022-08-21T03:17:37;15.82;74.78
47861;HTU21D;33620;52.340;5.984;2022-08-21T03:20:07;15.78;75.25
47861;HTU21D;33620;52.340;5.984;2022-08-21T03:22:33;15.80;75.35
47861;HTU21D;33620;52.340;5.984;2022-08-21T03:24:58;15.81;75.38
47861;HTU21D;33620;52.340;5.984;2022-08-21T03:27:25;15.77;75.57
47861;HTU21D;33620;52.340;5.984;2022-08-21T03:29:52;15.76;75.76
47861;HTU21D;33620;52.340;5.984;2022-08-21T03:32:17;15.74;75.88
47861;HTU21D;33620;52.340;5.984;2022-08-21T03:34:43;15.72;75.99
47861;HTU21D;33620;52.340;5.984;2022-08-21T03:37:09;15.69;76.02
47861;HTU21D;33620;52.340;5.984;2022-08-21T03:39:35;15.66;76.22
47861;HTU21D;33620;52.340;5.984;2022-08-21T03:42:00;15.66;76.32
47861;HTU21D;33620;52.340;5.984;2022-08-21T03:44:26;15.67;76.13
47861;HTU21D;33620;52.340;5.984;2022-08-21T03:46:56;15.66;76.06
47861;HTU21D;33620;52.340;5.984;2022-08-21T03:49:22;15.61;75.96
47861;HTU21D;33620;52.340;5.984;2022-08-21T03:51:47;15.58;75.83
47861;HTU21D;33620;52.340;5.984;2022-08-21T03:54:12;15.57;76.08
47861;HTU21D;33620;52.340;5.984;2022-08-21T03:56:38;15.57;76.27
47861;HTU21D;33620;52.340;5.984;2022-08-21T03:59:04;15.60;76.24
47861;HTU21D;33620;52.340;5.984;2022-08-21T04:01:30;15.60;76.06
47861;HTU21D;33620;52.340;5.984;2022-08-21T04:03:55;15.58;76.22
47861;HTU21D;33620;52.340;5.984;2022-08-21T04:06:20;15.59;76.21
47861;HTU21D;33620;52.340;5.984;2022-08-21T04:08:46;15.56;75.89
47861;HTU21D;33620;52.340;5.984;2022-08-21T04:11:11;15.52;75.74
47861;HTU21D;33620;52.340;5.984;2022-08-21T04:13:37;15.52;75.89
47861;HTU21D;33620;52.340;5.984;2022-08-21T04:16:03;15.49;76.12
47861;HTU21D;33620;52.340;5.984;2022-08-21T04:18:28;15.49;76.34
47861;HTU21D;33620;52.340;5.984;2022-08-21T04:20:56;15.53;76.36
47861;HTU21D;33620;52.340;5.984;2022-08-21T04:23:22;15.53;76.05
47861;HTU21D;33620;52.340;5.984;2022-08-21T04:25:48;15.49;76.08
47861;HTU21D;33620;52.340;5.984;2022-08-21T04:28:13;15.46;76.25
47861;HTU21D;33620;52.340;5.984;2022-08-21T04:30:39;15.47;76.11
47861;HTU21D;33620;52.340;5.984;2022-08-21T04:33:04;15.45;76.21
47861;HTU21D;33620;52.340;5.984;2022-08-21T04:35:32;15.45;76.19
47861;HTU21D;33620;52.340;5.984;2022-08-21T04:37:57;15.46;76.19
47861;HTU21D;33620;52.340;5.984;2022-08-21T04:40:26;15.46;76.21
47861;HTU21D;33620;52.340;5.984;2022-08-21T04:42:54;15.39;76.39
47861;HTU21D;33620;52.340;5.984;2022-08-21T04:45:26;15.40;76.50
47861;HTU21D;33620;52.340;5.984;2022-08-21T04:47:54;15.39;76.63
47861;HTU21D;33620;52.340;5.984;2022-08-21T04:50:22;15.39;76.53
47861;HTU21D;33620;52.340;5.984;2022-08-21T04:52:49;15.38;76.79
47861;HTU21D;33620;52.340;5.984;2022-08-21T04:55:16;15.41;76.82
47861;HTU21D;33620;52.340;5.984;2022-08-21T04:57:42;15.41;76.97
47861;HTU21D;33620;52.340;5.984;2022-08-21T05:00:08;15.41;76.84
47861;HTU21D;33620;52.340;5.984;2022-08-21T05:02:36;15.40;77.04
47861;HTU21D;33620;52.340;5.984;2022-08-21T05:05:01;15.38;77.31
47861;HTU21D;33620;52.340;5.984;2022-08-21T05:07:29;15.38;77.41
47861;HTU21D;33620;52.340;5.984;2022-08-21T05:09:56;15.42;77.40
47861;HTU21D;33620;52.340;5.984;2022-08-21T05:12:22;15.42;77.36
47861;HTU21D;33620;52.340;5.984;2022-08-21T05:14:48;15.43;77.26
47861;HTU21D;33620;52.340;5.984;2022-08-21T05:17:13;15.37;77.24
47861;HTU21D;33620;52.340;5.984;2022-08-21T05:19:39;15.31;77.34
47861;HTU21D;33620;52.340;5.984;2022-08-21T05:22:05;15.32;77.50
47861;HTU21D;33620;52.340;5.984;2022-08-21T05:24:31;15.30;77.54
47861;HTU21D;33620;52.340;5.984;2022-08-21T05:26:57;15.30;77.70
47861;HTU21D;33620;52.340;5.984;2022-08-21T05:29:22;15.28;77.72
47861;HTU21D;33620;52.340;5.984;2022-08-21T05:31:48;15.28;77.89
47861;HTU21D;33620;52.340;5.984;2022-08-21T05:34:17;15.29;78.04
47861;HTU21D;33620;52.340;5.984;2022-08-21T05:36:43;15.30;77.94
47861;HTU21D;33620;52.340;5.984;2022-08-21T05:39:08;15.29;78.05
47861;HTU21D;33620;52.340;5.984;2022-08-21T05:41:33;15.30;78.05
47861;HTU21D;33620;52.340;5.984;2022-08-21T05:43:59;15.34;78.29
47861;HTU21D;33620;52.340;5.984;2022-08-21T05:46:24;15.36;78.39
47861;HTU21D;33620;52.340;5.984;2022-08-21T05:48:49;15.38;78.50
47861;HTU21D;33620;52.340;5.984;2022-08-21T05:51:15;15.39;78.90
47861;HTU21D;33620;52.340;5.984;2022-08-21T05:53:42;15.44;79.06
47861;HTU21D;33620;52.340;5.984;2022-08-21T05:56:08;15.46;79.11
47861;HTU21D;33620;52.340;5.984;2022-08-21T05:58:34;15.47;79.45
47861;HTU21D;33620;52.340;5.984;2022-08-21T06:01:00;15.54;79.66
47861;HTU21D;33620;52.340;5.984;2022-08-21T06:03:30;15.59;79.76
47861;HTU21D;33620;52.340;5.984;2022-08-21T06:05:57;15.62;79.81
47861;HTU21D;33620;52.340;5.984;2022-08-21T06:08:23;15.69;79.96
47861;HTU21D;33620;52.340;5.984;2022-08-21T06:10:50;15.72;80.11
47861;HTU21D;33620;52.340;5.984;2022-08-21T06:13:18;15.76;80.24
47861;HTU21D;33620;52.340;5.984;2022-08-21T06:15:43;15.83;80.37
47861;HTU21D;33620;52.340;5.984;2022-08-21T06:18:09;15.89;80.38
47861;HTU21D;33620;52.340;5.984;2022-08-21T06:20:35;15.95;80.44
47861;HTU21D;33620;52.340;5.984;2022-08-21T06:23:01;15.99;80.53
47861;HTU21D;33620;52.340;5.984;2022-08-21T06:25:27;16.06;80.61
47861;HTU21D;33620;52.340;5.984;2022-08-21T06:27:52;16.13;80.63
47861;HTU21D;33620;52.340;5.984;2022-08-21T06:30:18;16.19;80.93
47861;HTU21D;33620;52.340;5.984;2022-08-21T06:32:43;16.25;81.02
47861;HTU21D;33620;52.340;5.984;2022-08-21T06:35:09;16.31;81.14
47861;HTU21D;33620;52.340;5.984;2022-08-21T06:37:35;16.37;81.13
47861;HTU21D;33620;52.340;5.984;2022-08-21T06:40:02;16.44;81.46
47861;HTU21D;33620;52.340;5.984;2022-08-21T06:42:28;16.49;81.40
47861;HTU21D;33620;52.340;5.984;2022-08-21T06:44:53;16.57;81.39
47861;HTU21D;33620;52.340;5.984;2022-08-21T06:47:19;16.62;81.31
47861;HTU21D;33620;52.340;5.984;2022-08-21T06:49:45;16.71;81.15
47861;HTU21D;33620;52.340;5.984;2022-08-21T06:52:12;16.76;81.32
47861;HTU21D;33620;52.340;5.984;2022-08-21T06:54:39;16.84;81.41
47861;HTU21D;33620;52.340;5.984;2022-08-21T06:57:04;16.90;81.31
47861;HTU21D;33620;52.340;5.984;2022-08-21T06:59:30;16.96;81.37
47861;HTU21D;33620;52.340;5.984;2022-08-21T07:01:56;17.02;81.38
47861;HTU21D;33620;52.340;5.984;2022-08-21T07:04:21;17.09;81.52
47861;HTU21D;33620;52.340;5.984;2022-08-21T07:06:46;17.14;81.24
47861;HTU21D;33620;52.340;5.984;2022-08-21T07:09:12;17.18;80.23
47861;HTU21D;33620;52.340;5.984;2022-08-21T07:11:37;17.24;79.72
47861;HTU21D;33620;52.340;5.984;2022-08-21T07:14:03;17.28;79.46
47861;HTU21D;33620;52.340;5.984;2022-08-21T07:16:29;17.34;79.37
47861;HTU21D;33620;52.340;5.984;2022-08-21T07:18:54;17.40;78.95
47861;HTU21D;33620;52.340;5.984;2022-08-21T07:21:20;17.46;78.61
47861;HTU21D;33620;52.340;5.984;2022-08-21T07:23:49;17.53;78.69
47861;HTU21D;33620;52.340;5.984;2022-08-21T07:26:20;17.58;78.30
47861;HTU21D;33620;52.340;5.984;2022-08-21T07:28:47;17.63;77.98
47861;HTU21D;33620;52.340;5.984;2022-08-21T07:31:15;17.67;76.24
47861;HTU21D;33620;52.340;5.984;2022-08-21T07:33:41;17.75;75.86
47861;HTU21D;33620;52.340;5.984;2022-08-21T07:36:07;17.79;74.89
47861;HTU21D;33620;52.340;5.984;2022-08-21T07:38:32;17.85;74.59
47861;HTU21D;33620;52.340;5.984;2022-08-21T07:41:00;17.91;74.53
47861;HTU21D;33620;52.340;5.984;2022-08-21T07:43:25;17.96;74.04
47861;HTU21D;33620;52.340;5.984;2022-08-21T07:45:51;18.02;73.64
47861;HTU21D;33620;52.340;5.984;2022-08-21T07:48:18;18.06;73.38
47861;HTU21D;33620;52.340;5.984;2022-08-21T07:50:43;18.12;72.80
47861;HTU21D;33620;52.340;5.984;2022-08-21T07:53:09;18.18;72.60
47861;HTU21D;33620;52.340;5.984;2022-08-21T07:55:35;18.21;72.53
47861;HTU21D;33620;52.340;5.984;2022-08-21T07:58:00;18.25;71.88
47861;HTU21D;33620;52.340;5.984;2022-08-21T08:00:27;18.33;71.02
47861;HTU21D;33620;52.340;5.984;2022-08-21T08:02:53;18.41;69.75
47861;HTU21D;33620;52.340;5.984;2022-08-21T08:05:25;18.52;70.02
47861;HTU21D;33620;52.340;5.984;2022-08-21T08:07:50;18.54;69.89
47861;HTU21D;33620;52.340;5.984;2022-08-21T08:10:16;18.59;70.14
47861;HTU21D;33620;52.340;5.984;2022-08-21T08:12:42;18.66;70.03
47861;HTU21D;33620;52.340;5.984;2022-08-21T08:15:12;18.72;69.78
47861;HTU21D;33620;52.340;5.984;2022-08-21T08:17:39;18.79;70.35
47861;HTU21D;33620;52.340;5.984;2022-08-21T08:20:06;18.86;71.00
47861;HTU21D;33620;52.340;5.984;2022-08-21T08:22:34;18.93;71.03
47861;HTU21D;33620;52.340;5.984;2022-08-21T08:25:00;19.01;70.99
47861;HTU21D;33620;52.340;5.984;2022-08-21T08:27:26;19.09;71.06
47861;HTU21D;33620;52.340;5.984;2022-08-21T08:29:51;19.20;71.73
47861;HTU21D;33620;52.340;5.984;2022-08-21T08:32:17;19.28;71.38
47861;HTU21D;33620;52.340;5.984;2022-08-21T08:34:43;19.38;72.39
47861;HTU21D;33620;52.340;5.984;2022-08-21T08:37:10;19.51;71.58
47861;HTU21D;33620;52.340;5.984;2022-08-21T08:39:36;19.56;71.43
47861;HTU21D;33620;52.340;5.984;2022-08-21T08:42:26;19.68;71.96
47861;HTU21D;33620;52.340;5.984;2022-08-21T08:44:59;19.81;71.85
47861;HTU21D;33620;52.340;5.984;2022-08-21T08:47:25;19.89;70.83
47861;HTU21D;33620;52.340;5.984;2022-08-21T08:49:58;19.94;71.06
47861;HTU21D;33620;52.340;5.984;2022-08-21T08:52:29;20.06;71.57
47861;HTU21D;33620;52.340;5.984;2022-08-21T08:57:26;20.19;70.87
47861;HTU21D;33620;52.340;5.984;2022-08-21T08:59:56;20.20;70.61
47861;HTU21D;33620;52.340;5.984;2022-08-21T09:02:23;20.21;70.76
47861;HTU21D;33620;52.340;5.984;2022-08-21T09:04:50;20.26;70.28
47861;HTU21D;33620;52.340;5.984;2022-08-21T09:07:51;20.30;70.45
47861;HTU21D;33620;52.340;5.984;2022-08-21T09:10:20;20.35;70.48
47861;HTU21D;33620;52.340;5.984;2022-08-21T09:15:34;20.65;69.58
47861;HTU21D;33620;52.340;5.984;2022-08-21T09:18:26;20.81;69.78
47861;HTU21D;33620;52.340;5.984;2022-08-21T09:21:26;21.01;69.73
47861;HTU21D;33620;52.340;5.984;2022-08-21T09:26:57;21.24;66.53
47861;HTU21D;33620;52.340;5.984;2022-08-21T09:29:30;21.33;67.41
47861;HTU21D;33620;52.340;5.984;2022-08-21T09:31:56;21.45;67.23
47861;HTU21D;33620;52.340;5.984;2022-08-21T09:34:27;21.50;66.48
47861;HTU21D;33620;52.340;5.984;2022-08-21T09:36:54;21.49;66.36
47861;HTU21D;33620;52.340;5.984;2022-08-21T09:39:45;21.43;66.38
47861;HTU21D;33620;52.340;5.984;2022-08-21T09:42:11;21.37;65.88
47861;HTU21D;33620;52.340;5.984;2022-08-21T09:44:40;21.36;66.53
47861;HTU21D;33620;52.340;5.984;2022-08-21T09:47:10;21.39;65.95
47861;HTU21D;33620;52.340;5.984;2022-08-21T09:49:40;21.42;65.72
47861;HTU21D;33620;52.340;5.984;2022-08-21T09:52:16;21.39;65.84
47861;HTU21D;33620;52.340;5.984;2022-08-21T09:54:45;21.42;66.23
47861;HTU21D;33620;52.340;5.984;2022-08-21T09:59:54;21.38;66.94
47861;HTU21D;33620;52.340;5.984;2022-08-21T10:02:30;21.34;66.46
47861;HTU21D;33620;52.340;5.984;2022-08-21T10:05:07;21.37;65.82
47861;HTU21D;33620;52.340;5.984;2022-08-21T10:07:37;21.55;67.10
47861;HTU21D;33620;52.340;5.984;2022-08-21T10:10:16;21.69;64.79
47861;HTU21D;33620;52.340;5.984;2022-08-21T10:19:02;22.01;62.51
47861;HTU21D;33620;52.340;5.984;2022-08-21T10:21:43;22.24;62.61
47861;HTU21D;33620;52.340;5.984;2022-08-21T10:24:19;22.46;61.79
47861;HTU21D;33620;52.340;5.984;2022-08-21T10:29:39;22.70;60.02
47861;HTU21D;33620;52.340;5.984;2022-08-21T10:35:17;23.08;58.48
47861;HTU21D;33620;52.340;5.984;2022-08-21T10:38:01;23.20;58.38
47861;HTU21D;33620;52.340;5.984;2022-08-21T10:43:28;23.32;58.62
47861;HTU21D;33620;52.340;5.984;2022-08-21T10:46:07;23.20;58.74
47861;HTU21D;33620;52.340;5.984;2022-08-21T10:48:59;23.06;56.56
47861;HTU21D;33620;52.340;5.984;2022-08-21T10:51:38;23.08;57.84
47861;HTU21D;33620;52.340;5.984;2022-08-21T10:54:18;23.08;57.40
47861;HTU21D;33620;52.340;5.984;2022-08-21T10:56:49;23.09;58.56
47861;HTU21D;33620;52.340;5.984;2022-08-21T11:04:20;23.39;59.44
47861;HTU21D;33620;52.340;5.984;2022-08-21T11:06:53;23.44;57.06
47861;HTU21D;33620;52.340;5.984;2022-08-21T11:09:24;23.46;57.12
47861;HTU21D;33620;52.340;5.984;2022-08-21T11:11:58;23.49;56.26
47861;HTU21D;33620;52.340;5.984;2022-08-21T11:14:36;23.47;56.66
47861;HTU21D;33620;52.340;5.984;2022-08-21T11:17:13;23.36;56.59
47861;HTU21D;33620;52.340;5.984;2022-08-21T11:20:12;23.25;56.54
47861;HTU21D;33620;52.340;5.984;2022-08-21T11:22:53;23.17;55.45
47861;HTU21D;33620;52.340;5.984;2022-08-21T11:25:29;23.23;56.12
47861;HTU21D;33620;52.340;5.984;2022-08-21T11:29:12;23.34;55.63
47861;HTU21D;33620;52.340;5.984;2022-08-21T11:31:55;23.52;56.97
47861;HTU21D;33620;52.340;5.984;2022-08-21T11:34:37;23.67;56.92
47861;HTU21D;33620;52.340;5.984;2022-08-21T11:40:02;23.77;54.44
47861;HTU21D;33620;52.340;5.984;2022-08-21T11:42:50;23.89;54.91
47861;HTU21D;33620;52.340;5.984;2022-08-21T11:48:34;23.87;55.53
47861;HTU21D;33620;52.340;5.984;2022-08-21T11:51:06;23.76;53.75
47861;HTU21D;33620;52.340;5.984;2022-08-21T11:53:41;23.67;54.17
47861;HTU21D;33620;52.340;5.984;2022-08-21T11:56:19;23.69;53.91
47861;HTU21D;33620;52.340;5.984;2022-08-21T11:58:51;23.79;53.81
47861;HTU21D;33620;52.340;5.984;2022-08-21T12:01:22;23.76;54.17
47861;HTU21D;33620;52.340;5.984;2022-08-21T12:06:33;23.66;54.46
47861;HTU21D;33620;52.340;5.984;2022-08-21T12:09:02;23.71;54.11
47861;HTU21D;33620;52.340;5.984;2022-08-21T12:11:28;23.75;54.26
47861;HTU21D;33620;52.340;5.984;2022-08-21T12:16:34;23.84;52.81
47861;HTU21D;33620;52.340;5.984;2022-08-21T12:19:11;23.87;53.49
47861;HTU21D;33620;52.340;5.984;2022-08-21T12:24:38;24.01;54.30
47861;HTU21D;33620;52.340;5.984;2022-08-21T12:27:41;24.10;52.57
47861;HTU21D;33620;52.340;5.984;2022-08-21T12:32:55;23.94;52.62
47861;HTU21D;33620;52.340;5.984;2022-08-21T12:35:27;23.90;54.59
47861;HTU21D;33620;52.340;5.984;2022-08-21T12:38:00;23.86;54.01
47861;HTU21D;33620;52.340;5.984;2022-08-21T12:40:37;23.73;53.57
47861;HTU21D;33620;52.340;5.984;2022-08-21T12:43:05;23.72;54.42
47861;HTU21D;33620;52.340;5.984;2022-08-21T12:45:41;23.80;54.37
47861;HTU21D;33620;52.340;5.984;2022-08-21T12:48:16;23.84;54.62
47861;HTU21D;33620;52.340;5.984;2022-08-21T12:50:54;23.79;55.03
47861;HTU21D;33620;52.340;5.984;2022-08-21T12:53:31;23.76;54.93
47861;HTU21D;33620;52.340;5.984;2022-08-21T12:56:02;23.70;54.51
47861;HTU21D;33620;52.340;5.984;2022-08-21T12:58:29;23.65;54.68
47861;HTU21D;33620;52.340;5.984;2022-08-21T13:01:07;23.60;55.07
47861;HTU21D;33620;52.340;5.984;2022-08-21T13:03:37;23.60;55.26
47861;HTU21D;33620;52.340;5.984;2022-08-21T13:06:04;23.60;55.31
47861;HTU21D;33620;52.340;5.984;2022-08-21T13:08:30;23.57;55.23
47861;HTU21D;33620;52.340;5.984;2022-08-21T13:11:02;23.55;55.49
47861;HTU21D;33620;52.340;5.984;2022-08-21T13:13:29;23.54;55.80
47861;HTU21D;33620;52.340;5.984;2022-08-21T13:16:04;23.52;55.78
47861;HTU21D;33620;52.340;5.984;2022-08-21T13:18:31;23.49;56.12
47861;HTU21D;33620;52.340;5.984;2022-08-21T13:21:12;23.52;57.39
47861;HTU21D;33620;52.340;5.984;2022-08-21T13:23:38;23.52;56.73
47861;HTU21D;33620;52.340;5.984;2022-08-21T13:26:19;23.53;56.25
47861;HTU21D;33620;52.340;5.984;2022-08-21T13:28:45;23.62;55.35
47861;HTU21D;33620;52.340;5.984;2022-08-21T13:31:24;23.68;55.52
47861;HTU21D;33620;52.340;5.984;2022-08-21T13:33:53;23.77;55.90
47861;HTU21D;33620;52.340;5.984;2022-08-21T13:36:29;23.86;55.35
47861;HTU21D;33620;52.340;5.984;2022-08-21T13:38:57;23.85;55.30
47861;HTU21D;33620;52.340;5.984;2022-08-21T13:41:26;23.84;56.07
47861;HTU21D;33620;52.340;5.984;2022-08-21T13:46:31;23.76;55.12
47861;HTU21D;33620;52.340;5.984;2022-08-21T13:48:59;23.76;56.20
47861;HTU21D;33620;52.340;5.984;2022-08-21T13:51:25;23.73;56.37
47861;HTU21D;33620;52.340;5.984;2022-08-21T13:53:52;23.72;56.77
47861;HTU21D;33620;52.340;5.984;2022-08-21T13:56:29;23.72;56.83
47861;HTU21D;33620;52.340;5.984;2022-08-21T13:58:56;23.68;57.26
47861;HTU21D;33620;52.340;5.984;2022-08-21T14:01:34;23.64;57.55
47861;HTU21D;33620;52.340;5.984;2022-08-21T14:04:16;23.57;57.28
47861;HTU21D;33620;52.340;5.984;2022-08-21T14:06:44;23.52;57.72
47861;HTU21D;33620;52.340;5.984;2022-08-21T14:09:34;23.51;58.26
47861;HTU21D;33620;52.340;5.984;2022-08-21T14:12:02;23.43;58.64
47861;HTU21D;33620;52.340;5.984;2022-08-21T14:14:32;23.43;58.54
47861;HTU21D;33620;52.340;5.984;2022-08-21T14:17:02;23.39;58.59
47861;HTU21D;33620;52.340;5.984;2022-08-21T14:22:23;23.38;58.67
47861;HTU21D;33620;52.340;5.984;2022-08-21T14:25:00;23.31;58.73
47861;HTU21D;33620;52.340;5.984;2022-08-21T14:27:28;23.32;59.79
47861;HTU21D;33620;52.340;5.984;2022-08-21T14:30:01;23.31;59.81
47861;HTU21D;33620;52.340;5.984;2022-08-21T14:32:29;23.28;59.83
47861;HTU21D;33620;52.340;5.984;2022-08-21T14:35:00;23.29;59.78
47861;HTU21D;33620;52.340;5.984;2022-08-21T14:37:25;23.30;59.56
47861;HTU21D;33620;52.340;5.984;2022-08-21T14:39:51;23.31;60.22
47861;HTU21D;33620;52.340;5.984;2022-08-21T14:42:16;23.30;59.59
47861;HTU21D;33620;52.340;5.984;2022-08-21T14:44:42;23.29;59.36
47861;HTU21D;33620;52.340;5.984;2022-08-21T14:47:08;23.26;58.98
47861;HTU21D;33620;52.340;5.984;2022-08-21T14:49:34;23.23;59.44
47861;HTU21D;33620;52.340;5.984;2022-08-21T14:51:59;23.21;59.68
47861;HTU21D;33620;52.340;5.984;2022-08-21T14:54:30;23.18;59.86
47861;HTU21D;33620;52.340;5.984;2022-08-21T14:56:57;23.18;60.10
47861;HTU21D;33620;52.340;5.984;2022-08-21T14:59:23;23.17;60.15
47861;HTU21D;33620;52.340;5.984;2022-08-21T15:01:50;23.14;59.82
47861;HTU21D;33620;52.340;5.984;2022-08-21T15:04:15;23.12;59.68
47861;HTU21D;33620;52.340;5.984;2022-08-21T15:06:41;23.12;59.90
47861;HTU21D;33620;52.340;5.984;2022-08-21T15:09:06;23.12;59.90
47861;HTU21D;33620;52.340;5.984;2022-08-21T15:11:33;23.10;59.68
47861;HTU21D;33620;52.340;5.984;2022-08-21T15:14:01;23.09;59.80
47861;HTU21D;33620;52.340;5.984;2022-08-21T15:16:29;23.07;59.68
47861;HTU21D;33620;52.340;5.984;2022-08-21T15:18:56;23.03;59.48
47861;HTU21D;33620;52.340;5.984;2022-08-21T15:21:21;22.98;59.57
47861;HTU21D;33620;52.340;5.984;2022-08-21T15:23:47;22.93;59.66
47861;HTU21D;33620;52.340;5.984;2022-08-21T15:26:12;22.88;59.39
47861;HTU21D;33620;52.340;5.984;2022-08-21T15:28:38;22.84;59.62
47861;HTU21D;33620;52.340;5.984;2022-08-21T15:31:04;22.84;59.92
47861;HTU21D;33620;52.340;5.984;2022-08-21T15:33:30;22.84;59.51
47861;HTU21D;33620;52.340;5.984;2022-08-21T15:35:56;22.85;59.86
47861;HTU21D;33620;52.340;5.984;2022-08-21T15:38:22;22.87;59.79
47861;HTU21D;33620;52.340;5.984;2022-08-21T15:40:47;22.92;59.50
47861;HTU21D;33620;52.340;5.984;2022-08-21T15:43:35;22.94;59.50
47861;HTU21D;33620;52.340;5.984;2022-08-21T15:46:02;22.93;59.41
47861;HTU21D;33620;52.340;5.984;2022-08-21T15:48:28;22.88;58.99
47861;HTU21D;33620;52.340;5.984;2022-08-21T15:50:53;22.83;58.76
47861;HTU21D;33620;52.340;5.984;2022-08-21T15:53:19;22.80;59.63
47861;HTU21D;33620;52.340;5.984;2022-08-21T15:55:44;22.78;58.48
47861;HTU21D;33620;52.340;5.984;2022-08-21T15:58:13;22.77;59.61
47861;HTU21D;33620;52.340;5.984;2022-08-21T16:00:39;22.78;59.51
47861;HTU21D;33620;52.340;5.984;2022-08-21T16:03:05;22.77;59.57
47861;HTU21D;33620;52.340;5.984;2022-08-21T16:05:32;22.76;59.45
47861;HTU21D;33620;52.340;5.984;2022-08-21T16:07:57;22.73;59.41
47861;HTU21D;33620;52.340;5.984;2022-08-21T16:10:24;22.70;59.55
47861;HTU21D;33620;52.340;5.984;2022-08-21T16:12:55;22.58;58.45
47861;HTU21D;33620;52.340;5.984;2022-08-21T16:15:22;22.55;59.22
47861;HTU21D;33620;52.340;5.984;2022-08-21T16:17:48;22.49;58.95
47861;HTU21D;33620;52.340;5.984;2022-08-21T16:20:20;22.47;59.16